Time;durP1;ratioP1;P1;durP2;ratioP2;P2;SDS_P1;SDS_P2;PMS_P1;PMS_P2;Temp;Humidity;BMP_temperature;BMP_pressure;BME280_temperature;BME280_humidity;BME280_pressure;Samples;Min_cycle;Max_cycle;Signal;HPM_P1;HPM_P2
2022/03/18 00:02:12;;;;;;;0.10;0.10;;;8.80;99.90;;;;;;5038166;28;20029;-63
2022/03/18 00:04:38;;;;;;;1.17;0.93;;;8.80;99.90;;;;;;5040536;28;20402;-64
2022/03/18 00:07:04;;;;;;;0.10;0.10;;;8.80;99.90;;;;;;5041268;28;20086;-64
2022/03/18 00:09:30;;;;;;;0.45;0.45;;;8.70;99.90;;;;;;5037793;28;20143;-65
2022/03/18 00:11:55;;;;;;;0.43;0.43;;;8.80;99.90;;;;;;5038344;28;20032;-63
2022/03/18 00:14:21;;;;;;;0.10;0.10;;;8.80;99.90;;;;;;5037702;28;20025;-64
2022/03/18 00:16:47;;;;;;;0.20;0.20;;;8.70;99.90;;;;;;5038433;28;20036;-66
2022/03/18 00:19:13;;;;;;;0.10;0.10;;;8.70;99.90;;;;;;5041296;28;20116;-63
2022/03/18 00:21:39;;;;;;;0.13;0.13;;;8.70;99.90;;;;;;5041100;28;20029;-66
2022/03/18 00:24:05;;;;;;;0.10;0.10;;;8.80;99.90;;;;;;5040607;28;20029;-65
2022/03/18 00:26:31;;;;;;;0.10;0.10;;;8.80;99.90;;;;;;5045196;28;20045;-63
2022/03/18 00:28:57;;;;;;;0.20;0.20;;;8.90;99.90;;;;;;5043039;28;20048;-64
2022/03/18 00:31:22;;;;;;;0.55;0.55;;;8.80;99.90;;;;;;5042271;28;20025;-64
2022/03/18 00:33:48;;;;;;;0.10;0.10;;;8.90;99.90;;;;;;5045768;28;20094;-64
2022/03/18 00:36:14;;;;;;;0.47;0.47;;;8.90;99.90;;;;;;5040681;28;20033;-64
2022/03/18 00:38:40;;;;;;;0.30;0.30;;;9.00;99.90;;;;;;5044103;28;20080;-63
2022/03/18 00:41:06;;;;;;;0.10;0.10;;;9.00;99.90;;;;;;5044480;28;20521;-64
2022/03/18 00:43:32;;;;;;;0.10;0.10;;;9.00;99.90;;;;;;5047352;28;20031;-63
2022/03/18 00:45:57;;;;;;;0.10;0.10;;;9.00;99.90;;;;;;5042390;28;20025;-63
2022/03/18 00:53:53;;;;;;;2.35;2.17;;;8.90;99.90;;;;;;5042318;28;20054;-64
2022/03/18 00:56:19;;;;;;;0.10;0.10;;;8.80;99.90;;;;;;5043908;28;20104;-62
2022/03/18 00:58:44;;;;;;;0.10;0.10;;;8.90;99.90;;;;;;5047556;28;20558;-63
2022/03/18 01:01:10;;;;;;;0.20;0.20;;;8.90;99.90;;;;;;5046101;28;20031;-65
2022/03/18 01:03:36;;;;;;;0.10;0.10;;;8.90;99.90;;;;;;5039552;28;20096;-63
2022/03/18 01:06:02;;;;;;;0.20;0.20;;;8.90;99.90;;;;;;5042759;28;20108;-64
2022/03/18 01:08:28;;;;;;;0.10;0.10;;;8.80;99.90;;;;;;5046511;28;20017;-63
2022/03/18 01:10:54;;;;;;;0.65;0.65;;;8.90;99.90;;;;;;5048096;28;20022;-63
2022/03/18 01:13:20;;;;;;;0.10;0.10;;;8.80;99.90;;;;;;5044722;28;20487;-64
2022/03/18 01:15:46;;;;;;;0.10;0.10;;;8.80;99.90;;;;;;5049161;28;20087;-64
2022/03/18 01:18:12;;;;;;;0.10;0.10;;;8.80;99.90;;;;;;5049651;28;20386;-63
2022/03/18 01:20:37;;;;;;;0.47;0.47;;;8.80;99.90;;;;;;5042749;28;20036;-65
2022/03/18 01:23:06;;;;;;;0.10;0.10;;;8.80;99.90;;;;;;5044572;28;20542;-63
2022/03/18 01:25:33;;;;;;;0.10;0.10;;;8.70;99.90;;;;;;5044872;28;20025;-65
2022/03/18 01:28:01;;;;;;;0.30;0.30;;;8.80;99.90;;;;;;5042350;28;20039;-66
2022/03/18 01:30:28;;;;;;;0.10;0.10;;;8.70;99.90;;;;;;5053523;22;20110;-65
2022/03/18 01:32:55;;;;;;;0.55;0.55;;;8.80;99.90;;;;;;5041092;28;20060;-68
2022/03/18 01:35:20;;;;;;;0.30;0.30;;;8.70;99.90;;;;;;5044277;28;20026;-64
2022/03/18 01:37:46;;;;;;;0.50;0.50;;;8.70;99.90;;;;;;5044638;28;20561;-64
2022/03/18 01:40:12;;;;;;;0.40;0.40;;;8.70;99.90;;;;;;5042589;28;20438;-65
2022/03/18 01:42:38;;;;;;;0.10;0.10;;;8.70;99.90;;;;;;5045595;28;20078;-65
2022/03/18 01:45:04;;;;;;;0.38;0.38;;;8.70;99.90;;;;;;5042945;28;20033;-65
2022/03/18 01:47:29;;;;;;;0.10;0.10;;;8.70;99.90;;;;;;5044436;28;20033;-65
2022/03/18 01:49:58;;;;;;;0.10;0.10;;;8.70;99.90;;;;;;5045935;28;20075;-65
2022/03/18 01:52:24;;;;;;;0.10;0.10;;;8.60;99.90;;;;;;5045763;28;20478;-65
2022/03/18 01:54:51;;;;;;;0.25;0.25;;;8.60;99.90;;;;;;5047188;28;20037;-65
2022/03/18 01:57:22;;;;;;;0.52;0.52;;;8.70;99.90;;;;;;5046077;28;20021;-65
2022/03/18 01:59:50;;;;;;;0.10;0.10;;;8.60;99.90;;;;;;5046765;28;20025;-65
2022/03/18 02:02:16;;;;;;;0.30;0.30;;;8.60;99.90;;;;;;5045885;28;20031;-66
2022/03/18 02:04:43;;;;;;;0.10;0.10;;;8.60;99.90;;;;;;5048574;28;20519;-66
2022/03/18 02:07:09;;;;;;;0.10;0.10;;;8.60;99.90;;;;;;5048006;28;20079;-66
2022/03/18 02:09:36;;;;;;;0.30;0.30;;;8.70;99.90;;;;;;5048049;28;20033;-65
2022/03/18 02:12:03;;;;;;;0.10;0.10;;;8.60;99.90;;;;;;5044085;28;20601;-66
2022/03/18 02:14:43;;;;;;;0.10;0.10;;;8.60;99.90;;;;;;5045688;28;20071;-65
2022/03/18 02:17:12;;;;;;;0.10;0.10;;;8.60;99.90;;;;;;5043523;28;20064;-64
2022/03/18 02:19:39;;;;;;;0.10;0.10;;;8.60;99.90;;;;;;5044511;28;20029;-65
2022/03/18 02:22:12;;;;;;;0.73;0.68;;;8.60;99.90;;;;;;5043774;28;20119;-65
2022/03/18 02:24:43;;;;;;;0.10;0.10;;;8.60;99.90;;;;;;5041606;28;21002;-66
2022/03/18 02:27:09;;;;;;;0.43;0.43;;;8.60;99.90;;;;;;5046940;28;20053;-66
2022/03/18 02:29:35;;;;;;;0.10;0.10;;;8.60;99.90;;;;;;5044924;28;20025;-66
2022/03/18 02:32:03;;;;;;;0.10;0.10;;;8.50;99.90;;;;;;5043827;28;20029;-65
2022/03/18 02:34:29;;;;;;;2.33;1.42;;;8.60;99.90;;;;;;5043115;28;20037;-65
2022/03/18 02:36:55;;;;;;;0.10;0.10;;;8.60;99.90;;;;;;5041892;28;20987;-65
2022/03/18 02:39:21;;;;;;;0.10;0.10;;;8.60;99.90;;;;;;5041577;28;20049;-65
2022/03/18 02:41:47;;;;;;;0.10;0.10;;;8.60;99.90;;;;;;5043891;28;20387;-67
2022/03/18 02:44:13;;;;;;;0.38;0.38;;;8.60;99.90;;;;;;5041336;28;20029;-66
2022/03/18 02:46:39;;;;;;;0.10;0.10;;;8.60;99.90;;;;;;5043425;28;20029;-65
2022/03/18 02:49:06;;;;;;;0.10;0.10;;;8.50;99.90;;;;;;5041196;28;20060;-65
2022/03/18 02:51:32;;;;;;;0.10;0.10;;;8.50;99.90;;;;;;5041504;28;20211;-66
2022/03/18 02:53:58;;;;;;;0.10;0.10;;;8.50;99.90;;;;;;5041485;28;20083;-63
2022/03/18 02:56:25;;;;;;;0.10;0.10;;;8.50;99.90;;;;;;5043426;28;20486;-64
2022/03/18 02:58:51;;;;;;;0.10;0.10;;;8.50;99.90;;;;;;5044059;28;20154;-64
2022/03/18 03:01:17;;;;;;;0.70;0.70;;;8.50;99.90;;;;;;5043606;28;20505;-64
2022/03/18 03:03:43;;;;;;;0.10;0.10;;;8.50;99.90;;;;;;5043772;28;20039;-65
2022/03/18 03:08:53;;;;;;;0.10;0.10;;;8.50;99.90;;;;;;5043549;28;20087;-64
2022/03/18 03:11:21;;;;;;;0.10;0.10;;;8.50;99.90;;;;;;5047924;28;20794;-66
2022/03/18 03:13:47;;;;;;;0.22;0.22;;;8.50;99.90;;;;;;5044017;28;20059;-65
2022/03/18 03:16:12;;;;;;;0.50;0.50;;;8.60;99.90;;;;;;5041639;28;20413;-64
2022/03/18 03:18:38;;;;;;;0.10;0.10;;;8.50;99.90;;;;;;5041687;28;20024;-65
2022/03/18 03:21:04;;;;;;;0.10;0.10;;;8.60;99.90;;;;;;5046836;28;20485;-65
2022/03/18 03:23:29;;;;;;;0.10;0.10;;;8.50;99.90;;;;;;5040458;28;20025;-65
2022/03/18 03:25:56;;;;;;;0.10;0.10;;;8.50;99.90;;;;;;5045471;28;20537;-65
2022/03/18 03:28:22;;;;;;;0.10;0.10;;;8.50;99.90;;;;;;5041696;28;20063;-65
2022/03/18 03:30:48;;;;;;;0.10;0.10;;;8.50;99.90;;;;;;5043202;28;20033;-67
2022/03/18 03:33:15;;;;;;;0.65;0.65;;;8.40;99.90;;;;;;5037821;28;20027;-65
2022/03/18 03:35:41;;;;;;;0.10;0.10;;;8.40;99.90;;;;;;5044415;28;20022;-63
2022/03/18 03:38:07;;;;;;;0.10;0.10;;;8.40;99.90;;;;;;5039892;28;20037;-64
2022/03/18 03:40:33;;;;;;;0.20;0.20;;;8.40;99.90;;;;;;5039929;28;20033;-65
2022/03/18 03:42:59;;;;;;;0.13;0.13;;;8.40;99.90;;;;;;5042229;28;20029;-65
2022/03/18 03:45:25;;;;;;;0.10;0.10;;;8.40;99.90;;;;;;5046063;28;20025;-64
2022/03/18 03:47:51;;;;;;;0.63;0.63;;;8.40;99.90;;;;;;5045286;28;20448;-66
2022/03/18 03:50:17;;;;;;;0.10;0.10;;;8.50;99.90;;;;;;5043243;28;20116;-65
2022/03/18 03:52:43;;;;;;;0.10;0.10;;;8.40;99.90;;;;;;5044495;28;20117;-65
2022/03/18 03:55:11;;;;;;;0.10;0.10;;;8.50;99.90;;;;;;5043227;28;20048;-64
2022/03/18 03:57:38;;;;;;;0.10;0.10;;;8.40;99.90;;;;;;5048285;28;20021;-64
2022/03/18 04:00:06;;;;;;;0.10;0.10;;;8.40;99.90;;;;;;5048228;28;20024;-64
2022/03/18 04:02:32;;;;;;;0.30;0.30;;;7.80;99.90;;;;;;5044399;28;20545;-65
2022/03/18 04:04:57;;;;;;;0.43;0.43;;;8.40;99.90;;;;;;5045982;28;20053;-64
2022/03/18 04:07:25;;;;;;;0.10;0.10;;;8.50;99.90;;;;;;5044005;28;20502;-65
2022/03/18 04:09:53;;;;;;;0.10;0.10;;;8.50;99.90;;;;;;5043323;28;20037;-65
2022/03/18 04:12:21;;;;;;;0.10;0.10;;;8.50;99.90;;;;;;5045945;28;20075;-65
2022/03/18 04:14:47;;;;;;;0.10;0.10;;;8.50;99.90;;;;;;5042109;28;20047;-65
2022/03/18 04:17:13;;;;;;;0.10;0.10;;;8.40;99.90;;;;;;5043938;28;20077;-65
2022/03/18 04:19:39;;;;;;;0.10;0.10;;;8.50;99.90;;;;;;5039632;28;20036;-63
2022/03/18 04:22:05;;;;;;;0.10;0.10;;;8.50;99.90;;;;;;5046685;28;20154;-65
2022/03/18 04:24:31;;;;;;;0.28;0.28;;;8.50;99.90;;;;;;5042137;28;20036;-65
2022/03/18 04:26:57;;;;;;;0.10;0.10;;;8.40;99.90;;;;;;5040766;28;20025;-65
2022/03/18 04:29:24;;;;;;;0.10;0.10;;;8.40;99.90;;;;;;5046682;28;20661;-65
2022/03/18 04:31:50;;;;;;;0.10;0.10;;;8.40;99.90;;;;;;5042763;28;20452;-65
2022/03/18 04:34:16;;;;;;;0.10;0.10;;;8.50;99.90;;;;;;5044855;28;20057;-65
2022/03/18 04:36:42;;;;;;;0.10;0.10;;;8.40;99.90;;;;;;5040969;28;20025;-65
2022/03/18 04:39:08;;;;;;;0.47;0.47;;;8.40;99.90;;;;;;5042646;28;20039;-65
2022/03/18 04:41:34;;;;;;;2.58;2.38;;;8.40;99.90;;;;;;5039624;28;20095;-65
2022/03/18 04:44:01;;;;;;;0.52;0.52;;;8.40;99.90;;;;;;5049112;28;20048;-65
2022/03/18 04:46:28;;;;;;;1.13;1.10;;;8.50;99.90;;;;;;5043535;28;20021;-65
2022/03/18 04:48:54;;;;;;;0.10;0.10;;;8.40;99.90;;;;;;5043811;28;20028;-65
2022/03/18 04:51:20;;;;;;;0.10;0.10;;;8.40;99.90;;;;;;5048125;28;20029;-65
2022/03/18 04:53:46;;;;;;;1.00;1.00;;;8.40;99.90;;;;;;5044985;28;20036;-64
2022/03/18 04:58:56;;;;;;;0.20;0.20;;;8.40;99.90;;;;;;5042069;28;20083;-65
2022/03/18 05:01:22;;;;;;;0.10;0.10;;;8.30;99.90;;;;;;5044713;28;20419;-65
2022/03/18 05:03:47;;;;;;;0.85;0.85;;;8.20;99.90;;;;;;5045700;28;20032;-65
2022/03/18 05:06:13;;;;;;;0.10;0.10;;;8.30;99.90;;;;;;5045204;28;20076;-64
2022/03/18 05:08:38;;;;;;;0.10;0.10;;;8.40;99.90;;;;;;5044307;28;20581;-65
2022/03/18 05:11:04;;;;;;;2.17;2.08;;;8.40;99.90;;;;;;5046760;28;20075;-65
2022/03/18 05:13:30;;;;;;;0.20;0.20;;;8.40;99.90;;;;;;5046273;28;20494;-65
2022/03/18 05:15:56;;;;;;;0.10;0.10;;;8.40;99.90;;;;;;5046907;28;20029;-65
2022/03/18 05:18:22;;;;;;;0.10;0.10;;;8.50;99.90;;;;;;5043349;28;20438;-65
2022/03/18 05:20:48;;;;;;;0.10;0.10;;;8.50;99.90;;;;;;5049550;28;20021;-65
2022/03/18 05:23:14;;;;;;;0.10;0.10;;;8.50;99.90;;;;;;5041360;28;20070;-65
2022/03/18 05:25:40;;;;;;;0.65;0.65;;;8.50;99.90;;;;;;5045974;28;20032;-65
2022/03/18 05:28:10;;;;;;;0.13;0.13;;;8.50;99.90;;;;;;5045868;28;20030;-65
2022/03/18 05:30:37;;;;;;;0.20;0.20;;;8.50;99.90;;;;;;5044409;28;20037;-65
2022/03/18 05:33:03;;;;;;;0.10;0.10;;;8.40;99.90;;;;;;5041888;28;20521;-65
2022/03/18 05:35:29;;;;;;;0.10;0.10;;;8.40;99.90;;;;;;5043111;28;20024;-65
2022/03/18 05:37:54;;;;;;;0.10;0.10;;;8.40;99.90;;;;;;5043856;28;20372;-65
2022/03/18 05:40:21;;;;;;;1.23;1.05;;;8.40;99.90;;;;;;5046582;28;20036;-65
2022/03/18 05:42:47;;;;;;;0.10;0.10;;;8.40;99.90;;;;;;5042427;28;20036;-64
2022/03/18 05:45:13;;;;;;;0.10;0.10;;;8.30;99.90;;;;;;5044953;28;20025;-66
2022/03/18 05:47:39;;;;;;;0.10;0.10;;;8.30;99.90;;;;;;5045805;28;20111;-66
2022/03/18 05:50:06;;;;;;;0.10;0.10;;;8.30;99.90;;;;;;5047464;28;20171;-66
2022/03/18 05:52:34;;;;;;;0.10;0.10;;;8.30;99.90;;;;;;5046513;28;20024;-66
2022/03/18 05:55:00;;;;;;;0.10;0.10;;;8.30;99.90;;;;;;5046329;28;20032;-65
2022/03/18 05:57:27;;;;;;;0.57;0.57;;;8.30;99.90;;;;;;5044099;28;20024;-66
2022/03/18 05:59:55;;;;;;;0.10;0.10;;;8.30;99.90;;;;;;5046027;28;20033;-65
2022/03/18 06:02:21;;;;;;;0.10;0.10;;;8.30;99.90;;;;;;5044228;28;20017;-65
2022/03/18 06:04:47;;;;;;;0.20;0.20;;;8.40;99.90;;;;;;5047693;28;20032;-65
2022/03/18 06:07:14;;;;;;;0.20;0.20;;;8.30;99.90;;;;;;5051811;28;20025;-65
2022/03/18 06:12:24;;;;;;;0.10;0.10;;;8.40;99.90;;;;;;5044277;28;20079;-65
2022/03/18 06:14:49;;;;;;;0.10;0.10;;;8.40;99.90;;;;;;5046025;28;20143;-65
2022/03/18 06:17:15;;;;;;;0.13;0.13;;;8.40;99.90;;;;;;5043805;28;20036;-65
2022/03/18 06:19:41;;;;;;;0.45;0.45;;;8.40;99.90;;;;;;5042501;28;20086;-65
2022/03/18 06:22:10;;;;;;;1.33;1.27;;;8.30;99.90;;;;;;5042132;28;20078;-66
2022/03/18 06:24:35;;;;;;;0.10;0.10;;;8.40;99.90;;;;;;5043032;28;20449;-64
2022/03/18 06:27:02;;;;;;;0.10;0.10;;;8.40;99.90;;;;;;5045577;28;20539;-65
2022/03/18 06:29:28;;;;;;;0.10;0.10;;;8.40;99.90;;;;;;5041943;28;20082;-64
2022/03/18 06:31:55;;;;;;;0.10;0.10;;;8.20;99.90;;;;;;5045588;28;20028;-65
2022/03/18 06:34:22;;;;;;;0.22;0.22;;;8.20;99.90;;;;;;5041132;28;20774;-64
2022/03/18 06:36:49;;;;;;;0.30;0.30;;;8.20;99.90;;;;;;5046610;28;20055;-65
2022/03/18 06:39:15;;;;;;;0.10;0.10;;;8.20;99.90;;;;;;5050413;28;20542;-65
2022/03/18 06:41:40;;;;;;;0.10;0.10;;;8.30;99.90;;;;;;5042459;28;20128;-68
2022/03/18 06:44:09;;;;;;;0.10;0.10;;;8.40;99.90;;;;;;5046110;28;20364;-64
2022/03/18 06:46:36;;;;;;;5.00;1.05;;;8.40;99.90;;;;;;5045855;28;20013;-65
2022/03/18 06:49:03;;;;;;;0.10;0.10;;;8.50;99.90;;;;;;5042918;28;20068;-65
2022/03/18 06:51:28;;;;;;;0.20;0.20;;;8.50;99.90;;;;;;5045752;28;20037;-65
2022/03/18 06:53:54;;;;;;;0.10;0.10;;;8.50;99.90;;;;;;5042145;28;20029;-66
2022/03/18 06:56:20;;;;;;;0.20;0.20;;;8.50;99.90;;;;;;5037044;28;20033;-66
2022/03/18 06:58:46;;;;;;;0.10;0.10;;;8.60;99.90;;;;;;5046049;28;20505;-64
2022/03/18 07:01:12;;;;;;;0.10;0.10;;;8.60;99.90;;;;;;5039389;28;20017;-65
2022/03/18 07:03:38;;;;;;;0.20;0.20;;;8.60;99.90;;;;;;5045358;28;20036;-65
2022/03/18 07:06:06;;;;;;;0.10;0.10;;;8.70;99.90;;;;;;5043338;28;20024;-64
2022/03/18 07:08:32;;;;;;;0.10;0.10;;;8.70;99.90;;;;;;5045177;28;20021;-65
2022/03/18 07:10:58;;;;;;;0.10;0.10;;;8.70;99.90;;;;;;5039892;28;20029;-66
2022/03/18 07:13:23;;;;;;;0.10;0.10;;;8.70;99.90;;;;;;5039455;28;20340;-64
2022/03/18 07:15:49;;;;;;;0.10;0.10;;;8.70;99.90;;;;;;5047589;28;20056;-65
2022/03/18 07:18:15;;;;;;;1.27;1.25;;;8.70;99.90;;;;;;5043496;28;20021;-65
2022/03/18 07:20:41;;;;;;;0.10;0.10;;;8.70;99.90;;;;;;5040283;28;20166;-64
2022/03/18 07:23:09;;;;;;;0.65;0.65;;;8.80;99.90;;;;;;5040360;28;20029;-64
2022/03/18 07:25:40;;;;;;;5.93;1.38;;;8.90;99.90;;;;;;5044599;28;20025;-64
2022/03/18 07:28:08;;;;;;;0.10;0.10;;;8.90;99.90;;;;;;5040377;28;20492;-65
2022/03/18 07:30:35;;;;;;;0.10;0.10;;;8.90;99.90;;;;;;5045249;22;20041;-73
2022/03/18 07:33:01;;;;;;;0.10;0.10;;;9.00;99.90;;;;;;5023016;28;20053;-73
2022/03/18 07:35:27;;;;;;;1.38;1.38;;;9.00;99.90;;;;;;5025322;28;20510;-77
2022/03/18 07:37:53;;;;;;;0.10;0.10;;;9.00;99.90;;;;;;5024805;28;20059;-75
2022/03/18 07:40:19;;;;;;;0.25;0.25;;;8.90;99.90;;;;;;5020684;28;20124;-74
2022/03/18 07:42:45;;;;;;;0.10;0.10;;;8.90;99.90;;;;;;5021239;28;20140;-76
2022/03/18 07:45:12;;;;;;;0.10;0.10;;;9.00;99.90;;;;;;5030500;28;20022;-75
2022/03/18 07:47:39;;;;;;;0.10;0.10;;;9.10;99.90;;;;;;5027274;28;20645;-75
2022/03/18 07:50:05;;;;;;;0.68;0.68;;;9.00;99.90;;;;;;5025351;28;20033;-71
2022/03/18 07:52:31;;;;;;;0.10;0.10;;;9.10;99.90;;;;;;5019731;28;20128;-73
2022/03/18 07:54:57;;;;;;;1.00;1.00;;;9.10;99.90;;;;;;5028286;28;20124;-75
2022/03/18 07:57:22;;;;;;;0.10;0.10;;;9.30;99.90;;;;;;5025844;28;20116;-73
2022/03/18 07:59:48;;;;;;;0.52;0.52;;;9.30;99.90;;;;;;5037430;22;20552;-73
2022/03/18 08:02:13;;;;;;;0.95;0.95;;;9.40;99.90;;;;;;5029512;28;20364;-75
2022/03/18 08:04:39;;;;;;;0.10;0.10;;;9.40;99.90;;;;;;5028167;28;20517;-74
2022/03/18 08:07:05;;;;;;;0.10;0.10;;;9.30;99.90;;;;;;5029917;28;20477;-73
2022/03/18 08:09:31;;;;;;;0.10;0.10;;;9.40;99.90;;;;;;5030336;28;20402;-74
2022/03/18 08:11:57;;;;;;;0.40;0.40;;;9.50;99.90;;;;;;5030477;28;20021;-74
2022/03/18 08:14:24;;;;;;;0.10;0.10;;;9.50;99.90;;;;;;5023747;28;20036;-73
2022/03/18 08:16:50;;;;;;;0.75;0.75;;;9.50;99.90;;;;;;5020002;28;20030;-73
2022/03/18 08:19:16;;;;;;;0.32;0.32;;;9.50;99.90;;;;;;5029233;28;20025;-74
2022/03/18 08:21:42;;;;;;;0.63;0.63;;;9.50;99.90;;;;;;5029298;28;20479;-73
2022/03/18 08:24:09;;;;;;;0.20;0.20;;;9.60;99.90;;;;;;5023998;28;20049;-76
2022/03/18 08:26:37;;;;;;;0.25;0.25;;;9.60;99.90;;;;;;5029717;28;20021;-74
2022/03/18 08:29:09;;;;;;;0.10;0.10;;;9.70;99.90;;;;;;5018426;28;20035;-73
2022/03/18 08:31:35;;;;;;;0.20;0.20;;;9.60;99.90;;;;;;5011496;28;20041;-74
2022/03/18 08:34:01;;;;;;;0.10;0.10;;;9.90;99.90;;;;;;5027636;28;20025;-73
2022/03/18 08:36:27;;;;;;;0.10;0.10;;;9.90;99.90;;;;;;5029597;28;20030;-73
2022/03/18 08:38:52;;;;;;;0.10;0.10;;;10.10;99.90;;;;;;5019428;28;20041;-74
2022/03/18 08:41:18;;;;;;;0.10;0.10;;;10.20;99.90;;;;;;5021250;28;20131;-74
2022/03/18 08:43:44;;;;;;;0.10;0.10;;;10.20;99.90;;;;;;5027034;28;20029;-74
2022/03/18 08:46:10;;;;;;;0.10;0.10;;;10.30;99.90;;;;;;5017778;28;20029;-74
2022/03/18 08:48:35;;;;;;;0.10;0.10;;;10.40;99.90;;;;;;5028587;28;20041;-74
2022/03/18 08:51:01;;;;;;;0.80;0.80;;;10.30;99.90;;;;;;5020342;28;20022;-73
2022/03/18 08:53:26;;;;;;;0.35;0.35;;;10.40;99.90;;;;;;5025319;28;20030;-73
2022/03/18 08:55:54;;;;;;;0.10;0.10;;;10.40;99.90;;;;;;5027707;28;20036;-73
2022/03/18 08:58:20;;;;;;;0.10;0.10;;;10.30;99.90;;;;;;5024808;28;20141;-72
2022/03/18 09:00:46;;;;;;;1.10;1.02;;;10.30;99.90;;;;;;5017638;28;20121;-73
2022/03/18 09:03:11;;;;;;;0.10;0.10;;;10.20;99.90;;;;;;5024071;28;20025;-72
2022/03/18 09:05:37;;;;;;;0.10;0.10;;;10.20;99.90;;;;;;5029166;28;20399;-73
2022/03/18 09:08:02;;;;;;;0.10;0.10;;;10.20;99.90;;;;;;5029852;28;20022;-72
2022/03/18 09:10:28;;;;;;;0.10;0.10;;;10.20;99.90;;;;;;5020454;28;20062;-71
2022/03/18 09:13:00;;;;;;;0.10;0.10;;;10.30;99.90;;;;;;5018246;28;20033;-75
2022/03/18 09:15:28;;;;;;;0.20;0.20;;;10.30;99.90;;;;;;5017249;28;20029;-73
2022/03/18 09:17:54;;;;;;;0.17;0.17;;;10.40;99.90;;;;;;5029578;28;20042;-75
2022/03/18 09:20:19;;;;;;;0.10;0.10;;;10.20;99.90;;;;;;5026029;28;20021;-74
2022/03/18 09:22:45;;;;;;;0.10;0.10;;;10.10;99.90;;;;;;5020364;28;20545;-71
2022/03/18 09:25:11;;;;;;;0.10;0.10;;;10.20;99.90;;;;;;5022306;28;20383;-73
2022/03/18 09:27:37;;;;;;;0.10;0.10;;;10.20;99.90;;;;;;5022920;28;20494;-73
2022/03/18 09:30:03;;;;;;;0.10;0.10;;;10.10;99.90;;;;;;5030208;28;20141;-74
2022/03/18 09:32:30;;;;;;;0.10;0.10;;;10.10;99.90;;;;;;5041761;28;20038;-76
2022/03/18 09:34:56;;;;;;;0.28;0.28;;;10.10;99.90;;;;;;5029496;28;20030;-73
2022/03/18 09:37:22;;;;;;;0.10;0.10;;;10.20;99.90;;;;;;5024008;28;20029;-73
2022/03/18 09:39:48;;;;;;;0.10;0.10;;;9.40;99.90;;;;;;5021952;28;20502;-73
2022/03/18 09:42:14;;;;;;;0.10;0.10;;;10.30;99.90;;;;;;5023703;28;20029;-74
2022/03/18 09:44:40;;;;;;;0.15;0.15;;;10.30;99.90;;;;;;5024140;28;20430;-74
2022/03/18 09:47:09;;;;;;;0.10;0.10;;;10.20;99.90;;;;;;5024570;28;20021;-73
2022/03/18 09:49:35;;;;;;;0.10;0.10;;;10.10;99.90;;;;;;5030677;28;20152;-74
2022/03/18 09:52:05;;;;;;;0.10;0.10;;;10.20;99.90;;;;;;5032870;28;20475;-75
2022/03/18 09:54:32;;;;;;;0.10;0.10;;;10.30;99.90;;;;;;5030715;28;20017;-74
2022/03/18 09:56:59;;;;;;;0.10;0.10;;;10.40;99.90;;;;;;5012962;28;20033;-74
2022/03/18 09:59:27;;;;;;;0.10;0.10;;;10.70;99.90;;;;;;5012929;28;20171;-73
2022/03/18 10:02:26;;;;;;;0.10;0.10;;;10.50;99.90;;;;;;5019740;28;20017;-74
2022/03/18 10:05:00;;;;;;;0.13;0.13;;;10.50;99.90;;;;;;5023744;28;20022;-74
2022/03/18 10:07:27;;;;;;;1.50;1.45;;;10.50;99.90;;;;;;5025584;28;20029;-74
2022/03/18 10:10:04;;;;;;;0.10;0.10;;;10.70;99.90;;;;;;5032430;28;20029;-73
2022/03/18 10:12:33;;;;;;;0.10;0.10;;;10.80;99.90;;;;;;5028337;28;20167;-73
2022/03/18 10:15:10;;;;;;;0.30;0.30;;;11.10;99.90;;;;;;5030737;28;20037;-73
2022/03/18 10:17:41;;;;;;;0.10;0.10;;;11.20;99.90;;;;;;5032210;28;20029;-74
2022/03/18 10:20:08;;;;;;;0.15;0.15;;;11.10;99.90;;;;;;5031082;28;20102;-74
2022/03/18 10:22:36;;;;;;;0.10;0.10;;;11.00;99.90;;;;;;5021283;28;20018;-74
2022/03/18 10:25:03;;;;;;;0.20;0.20;;;11.20;99.90;;;;;;5030077;28;20021;-73
2022/03/18 10:27:28;;;;;;;0.95;0.95;;;11.20;99.90;;;;;;5030959;28;20042;-74
2022/03/18 10:29:55;;;;;;;0.10;0.10;;;11.40;99.90;;;;;;5021789;28;20060;-75
2022/03/18 10:32:29;;;;;;;0.10;0.10;;;11.50;99.90;;;;;;5027714;28;20030;-74
2022/03/18 10:37:42;;;;;;;0.20;0.20;;;11.70;99.90;;;;;;5024895;28;20049;-74
2022/03/18 10:40:09;;;;;;;0.20;0.20;;;11.60;99.90;;;;;;5019536;28;20026;-75
2022/03/18 10:42:35;;;;;;;0.17;0.17;;;11.30;99.90;;;;;;5021851;28;20061;-75
2022/03/18 10:45:02;;;;;;;0.10;0.10;;;11.30;99.90;;;;;;5028511;28;20068;-76
2022/03/18 10:47:40;;;;;;;0.20;0.20;;;11.40;99.90;;;;;;5027737;28;20067;-74
2022/03/18 10:50:16;;;;;;;0.10;0.10;;;11.40;99.90;;;;;;5029627;28;20117;-73
2022/03/18 10:52:48;;;;;;;0.10;0.10;;;11.50;99.90;;;;;;5028650;28;20021;-75
2022/03/18 10:55:29;;;;;;;0.10;0.10;;;11.60;99.90;;;;;;5025471;28;20033;-75
2022/03/18 10:57:59;;;;;;;0.20;0.20;;;11.70;99.90;;;;;;5029335;28;20031;-73
2022/03/18 11:00:28;;;;;;;0.20;0.20;;;12.00;99.90;;;;;;5024785;28;20034;-74
2022/03/18 11:03:00;;;;;;;0.22;0.22;;;12.10;99.90;;;;;;5021367;28;20025;-74
2022/03/18 11:05:35;;;;;;;0.10;0.10;;;12.00;99.90;;;;;;5022909;28;20064;-75
2022/03/18 11:08:07;;;;;;;0.10;0.10;;;12.10;99.90;;;;;;5020341;28;20017;-75
2022/03/18 11:13:25;;;;;;;0.10;0.10;;;12.20;99.90;;;;;;5031067;28;20048;-72
2022/03/18 11:15:52;;;;;;;0.10;0.10;;;12.40;99.90;;;;;;5021689;28;20056;-74
2022/03/18 11:18:19;;;;;;;0.10;0.10;;;12.40;99.90;;;;;;5022036;28;20023;-73
2022/03/18 11:20:46;;;;;;;0.50;0.50;;;12.40;99.90;;;;;;5028964;28;20056;-72
2022/03/18 11:23:15;;;;;;;0.10;0.10;;;12.40;99.90;;;;;;5030331;28;20052;-73
2022/03/18 11:25:42;;;;;;;0.00;0.00;;;12.40;99.90;;;;;;5028124;28;20032;-74
2022/03/18 11:28:14;;;;;;;0.10;0.10;;;12.30;99.90;;;;;;5021988;28;20025;-72
2022/03/18 11:30:41;;;;;;;0.10;0.10;;;12.50;99.90;;;;;;5019382;28;20140;-72
2022/03/18 11:33:09;;;;;;;0.10;0.10;;;12.50;99.90;;;;;;5029502;28;20191;-73
2022/03/18 11:35:48;;;;;;;0.30;0.30;;;12.30;99.90;;;;;;5031367;28;20104;-72
2022/03/18 11:38:17;;;;;;;0.10;0.10;;;12.20;99.90;;;;;;5033175;28;20482;-77
2022/03/18 11:41:01;;;;;;;0.10;0.10;;;12.00;99.90;;;;;;5036220;28;20171;-76
2022/03/18 11:43:58;;;;;;;0.17;0.17;;;12.10;99.90;;;;;;5038924;28;20100;-76
2022/03/18 11:46:27;;;;;;;0.43;0.43;;;12.20;99.90;;;;;;5032467;28;20108;-76
2022/03/18 11:49:02;;;;;;;0.75;0.70;;;12.20;99.90;;;;;;5030665;28;20017;-71
2022/03/18 11:51:31;;;;;;;0.10;0.10;;;12.20;99.90;;;;;;5027871;28;20041;-73
2022/03/18 11:54:02;;;;;;;0.90;0.90;;;12.40;99.90;;;;;;5044414;28;20483;-73
2022/03/18 11:57:13;;;;;;;0.10;0.10;;;12.50;99.90;;;;;;5035354;28;20037;-71
2022/03/18 11:59:45;;;;;;;0.10;0.10;;;12.90;99.90;;;;;;4972045;28;20504;-76
2022/03/18 12:02:13;;;;;;;0.10;0.10;;;13.10;99.90;;;;;;5025885;28;20136;-74
2022/03/18 12:04:48;;;;;;;0.10;0.10;;;12.80;99.90;;;;;;5031677;28;20514;-73
2022/03/18 12:07:20;;;;;;;0.20;0.20;;;13.00;99.90;;;;;;5014896;28;20029;-76
2022/03/18 12:10:09;;;;;;;0.40;0.40;;;12.90;99.90;;;;;;5028063;28;20018;-77
2022/03/18 12:12:42;;;;;;;0.20;0.20;;;12.70;99.90;;;;;;5012917;28;20522;-79
2022/03/18 12:15:12;;;;;;;0.10;0.10;;;12.70;99.90;;;;;;5019695;28;20487;-74
2022/03/18 12:17:42;;;;;;;0.00;0.00;;;11.80;99.90;;;;;;5022782;28;20502;-74
2022/03/18 12:20:10;;;;;;;0.00;0.00;;;12.60;99.90;;;;;;5025671;28;20109;-75
2022/03/18 12:22:40;;;;;;;0.10;0.10;;;12.80;99.90;;;;;;5028850;28;20036;-78
2022/03/18 12:25:08;;;;;;;0.10;0.10;;;12.70;99.90;;;;;;5021230;28;20056;-75
2022/03/18 12:27:36;;;;;;;0.10;0.10;;;12.80;99.90;;;;;;5022572;28;20022;-76
2022/03/18 12:30:05;;;;;;;0.10;0.10;;;12.70;99.90;;;;;;5026616;28;20498;-75
2022/03/18 12:32:31;;;;;;;0.10;0.10;;;12.80;99.90;;;;;;5024183;28;20064;-74
2022/03/18 12:34:57;;;;;;;1.35;1.30;;;12.90;99.90;;;;;;5026967;28;20057;-75
2022/03/18 12:37:31;;;;;;;0.47;0.47;;;12.80;99.90;;;;;;5019197;28;20522;-74
2022/03/18 12:40:03;;;;;;;0.40;0.40;;;12.80;99.90;;;;;;5036183;28;20034;-75
2022/03/18 12:42:29;;;;;;;0.10;0.10;;;12.80;99.90;;;;;;5029124;28;20380;-75
2022/03/18 12:44:59;;;;;;;0.25;0.25;;;12.90;99.90;;;;;;5020512;28;20040;-75
2022/03/18 12:47:30;;;;;;;0.28;0.28;;;13.00;99.90;;;;;;5012766;28;20018;-76
2022/03/18 12:50:00;;;;;;;0.10;0.10;;;13.20;99.90;;;;;;5025911;28;20029;-75
2022/03/18 12:52:26;;;;;;;0.10;0.10;;;13.40;99.90;;;;;;5026931;28;20113;-75
2022/03/18 12:55:04;;;;;;;0.15;0.15;;;13.30;99.90;;;;;;5020813;28;20128;-76
2022/03/18 12:57:33;;;;;;;0.10;0.10;;;13.50;99.90;;;;;;5023815;28;20076;-77
2022/03/18 12:59:59;;;;;;;0.20;0.20;;;13.70;99.90;;;;;;5015912;28;20038;-77
2022/03/18 13:02:25;;;;;;;0.00;0.00;;;13.60;99.90;;;;;;5024715;28;20032;-75
2022/03/18 13:04:58;;;;;;;0.75;0.75;;;13.70;99.90;;;;;;5031430;28;20026;-74
2022/03/18 13:07:28;;;;;;;0.10;0.10;;;13.90;99.90;;;;;;5029762;28;20029;-75
2022/03/18 13:09:55;;;;;;;0.10;0.10;;;13.90;99.90;;;;;;5030146;28;20498;-73
2022/03/18 13:12:29;;;;;;;0.08;0.08;;;14.30;99.90;;;;;;5024075;28;20080;-78
2022/03/18 13:14:56;;;;;;;0.10;0.10;;;14.70;99.90;;;;;;5031617;28;20083;-74